sensor_id;sensor_type;location;lat;lon;timestamp;pressure;altitude;pressure_sealevel;temperature;humidity
8253;BME280;61313;48.396;10.008;2024-02-16T00:01:31;96136.50;;;10.38;65.52
8253;BME280;61313;48.396;10.008;2024-02-16T00:03:56;96135.50;;;10.41;65.31
8253;BME280;61313;48.396;10.008;2024-02-16T00:06:22;96133.66;;;10.43;64.97
8253;BME280;61313;48.396;10.008;2024-02-16T00:08:47;96137.34;;;10.38;65.11
8253;BME280;61313;48.396;10.008;2024-02-16T00:11:13;96127.38;;;10.64;63.95
8253;BME280;61313;48.396;10.008;2024-02-16T00:13:38;96138.03;;;10.61;64.34
8253;BME280;61313;48.396;10.008;2024-02-16T00:16:04;96135.75;;;10.53;64.45
8253;BME280;61313;48.396;10.008;2024-02-16T00:18:29;96132.28;;;10.53;64.31
8253;BME280;61313;48.396;10.008;2024-02-16T00:20:55;96137.63;;;10.51;64.46
8253;BME280;61313;48.396;10.008;2024-02-16T00:23:20;96122.09;;;10.47;64.49
8253;BME280;61313;48.396;10.008;2024-02-16T00:25:48;96123.81;;;10.29;65.13
8253;BME280;61313;48.396;10.008;2024-02-16T00:28:13;96123.16;;;10.43;64.98
8253;BME280;61313;48.396;10.008;2024-02-16T00:30:38;96120.91;;;10.35;64.67
8253;BME280;61313;48.396;10.008;2024-02-16T00:33:04;96128.97;;;10.49;64.54
8253;BME280;61313;48.396;10.008;2024-02-16T00:35:29;96124.78;;;10.45;64.47
8253;BME280;61313;48.396;10.008;2024-02-16T00:37:59;96124.78;;;10.45;64.23
8253;BME280;61313;48.396;10.008;2024-02-16T00:40:24;96133.72;;;10.41;64.43
8253;BME280;61313;48.396;10.008;2024-02-16T00:42:49;96123.38;;;10.38;64.14
8253;BME280;61313;48.396;10.008;2024-02-16T00:45:15;96115.97;;;10.46;64.17
8253;BME280;61313;48.396;10.008;2024-02-16T00:47:40;96131.47;;;10.33;64.48
8253;BME280;61313;48.396;10.008;2024-02-16T00:50:06;96125.28;;;10.34;64.59
8253;BME280;61313;48.396;10.008;2024-02-16T00:52:33;96119.13;;;10.35;64.62
8253;BME280;61313;48.396;10.008;2024-02-16T00:54:59;96115.66;;;10.16;64.64
8253;BME280;61313;48.396;10.008;2024-02-16T00:57:24;96117.13;;;10.22;65.15
8253;BME280;61313;48.396;10.008;2024-02-16T00:59:50;96115.44;;;10.40;64.41
8253;BME280;61313;48.396;10.008;2024-02-16T01:02:15;96115.09;;;10.28;64.26
8253;BME280;61313;48.396;10.008;2024-02-16T01:04:42;96117.28;;;10.37;64.68
8253;BME280;61313;48.396;10.008;2024-02-16T01:07:07;96126.38;;;10.30;64.69
8253;BME280;61313;48.396;10.008;2024-02-16T01:09:32;96119.91;;;10.37;64.68
8253;BME280;61313;48.396;10.008;2024-02-16T01:11:58;96121.22;;;10.27;64.50
8253;BME280;61313;48.396;10.008;2024-02-16T01:14:23;96120.38;;;10.27;64.94
8253;BME280;61313;48.396;10.008;2024-02-16T01:16:49;96120.13;;;10.33;64.83
8253;BME280;61313;48.396;10.008;2024-02-16T01:19:14;96118.34;;;10.33;64.77
8253;BME280;61313;48.396;10.008;2024-02-16T01:21:40;96112.50;;;10.27;64.96
8253;BME280;61313;48.396;10.008;2024-02-16T01:24:06;96117.72;;;10.28;64.79
8253;BME280;61313;48.396;10.008;2024-02-16T01:26:32;96115.44;;;10.21;65.39
8253;BME280;61313;48.396;10.008;2024-02-16T01:28:58;96116.72;;;10.31;64.36
8253;BME280;61313;48.396;10.008;2024-02-16T01:31:24;96116.19;;;10.23;65.29
8253;BME280;61313;48.396;10.008;2024-02-16T01:33:49;96120.03;;;10.15;65.32
8253;BME280;61313;48.396;10.008;2024-02-16T01:36:14;96114.72;;;10.17;65.37
8253;BME280;61313;48.396;10.008;2024-02-16T01:38:40;96121.78;;;10.15;65.56
8253;BME280;61313;48.396;10.008;2024-02-16T01:41:05;96127.03;;;10.15;65.56
8253;BME280;61313;48.396;10.008;2024-02-16T01:43:32;96123.78;;;10.10;65.46
8253;BME280;61313;48.396;10.008;2024-02-16T01:45:58;96126.97;;;9.98;66.19
8253;BME280;61313;48.396;10.008;2024-02-16T01:48:25;96126.84;;;10.01;65.90
8253;BME280;61313;48.396;10.008;2024-02-16T01:50:52;96127.19;;;9.93;65.90
8253;BME280;61313;48.396;10.008;2024-02-16T01:53:18;96115.06;;;9.90;66.12
8253;BME280;61313;48.396;10.008;2024-02-16T01:55:45;96114.72;;;9.79;67.01
8253;BME280;61313;48.396;10.008;2024-02-16T01:58:11;96112.81;;;9.83;66.42
8253;BME280;61313;48.396;10.008;2024-02-16T02:00:36;96119.81;;;9.82;67.06
8253;BME280;61313;48.396;10.008;2024-02-16T02:03:03;96120.59;;;9.84;67.00
8253;BME280;61313;48.396;10.008;2024-02-16T02:05:28;96117.19;;;9.82;67.07
8253;BME280;61313;48.396;10.008;2024-02-16T02:07:54;96119.16;;;9.77;67.07
8253;BME280;61313;48.396;10.008;2024-02-16T02:10:20;96106.38;;;9.71;67.12
8253;BME280;61313;48.396;10.008;2024-02-16T02:12:46;96103.66;;;9.72;66.89
8253;BME280;61313;48.396;10.008;2024-02-16T02:15:11;96109.88;;;9.70;67.06
8253;BME280;61313;48.396;10.008;2024-02-16T02:17:37;96105.56;;;9.69;67.05
8253;BME280;61313;48.396;10.008;2024-02-16T02:20:03;96105.00;;;9.62;66.92
8253;BME280;61313;48.396;10.008;2024-02-16T02:22:37;96107.22;;;9.51;67.92
8253;BME280;61313;48.396;10.008;2024-02-16T02:25:03;96107.81;;;9.58;67.52
8253;BME280;61313;48.396;10.008;2024-02-16T02:27:30;96104.78;;;9.67;67.01
8253;BME280;61313;48.396;10.008;2024-02-16T02:29:55;96097.63;;;9.70;66.98
8253;BME280;61313;48.396;10.008;2024-02-16T02:32:21;96092.09;;;9.58;67.31
8253;BME280;61313;48.396;10.008;2024-02-16T02:34:46;96089.53;;;9.56;67.27
8253;BME280;61313;48.396;10.008;2024-02-16T02:37:12;96092.25;;;9.54;67.44
8253;BME280;61313;48.396;10.008;2024-02-16T02:39:37;96084.94;;;9.61;67.33
8253;BME280;61313;48.396;10.008;2024-02-16T02:42:03;96084.16;;;9.40;68.23
8253;BME280;61313;48.396;10.008;2024-02-16T02:44:28;96084.91;;;9.42;68.20
8253;BME280;61313;48.396;10.008;2024-02-16T02:46:56;96077.56;;;9.50;67.32
8253;BME280;61313;48.396;10.008;2024-02-16T02:49:21;96079.47;;;9.47;67.81
8253;BME280;61313;48.396;10.008;2024-02-16T02:51:47;96075.63;;;9.35;67.86
8253;BME280;61313;48.396;10.008;2024-02-16T02:54:13;96079.97;;;9.36;68.17
8253;BME280;61313;48.396;10.008;2024-02-16T02:56:38;96067.63;;;8.99;69.25
8253;BME280;61313;48.396;10.008;2024-02-16T02:59:03;96081.09;;;9.10;69.31
8253;BME280;61313;48.396;10.008;2024-02-16T03:01:31;96074.81;;;8.73;70.52
8253;BME280;61313;48.396;10.008;2024-02-16T03:03:56;96073.84;;;8.96;69.95
8253;BME280;61313;48.396;10.008;2024-02-16T03:06:23;96081.22;;;8.86;69.93
8253;BME280;61313;48.396;10.008;2024-02-16T03:08:48;96081.75;;;8.95;69.24
8253;BME280;61313;48.396;10.008;2024-02-16T03:11:14;96086.41;;;9.08;69.42
8253;BME280;61313;48.396;10.008;2024-02-16T03:13:39;96077.63;;;9.09;68.64
8253;BME280;61313;48.396;10.008;2024-02-16T03:16:05;96079.53;;;9.06;68.59
8253;BME280;61313;48.396;10.008;2024-02-16T03:18:32;96082.28;;;9.03;68.75
8253;BME280;61313;48.396;10.008;2024-02-16T03:20:57;96079.78;;;9.00;68.78
8253;BME280;61313;48.396;10.008;2024-02-16T03:23:23;96085.59;;;9.06;68.78
8253;BME280;61313;48.396;10.008;2024-02-16T03:25:48;96093.06;;;9.16;67.92
8253;BME280;61313;48.396;10.008;2024-02-16T03:28:14;96097.47;;;9.15;68.35
8253;BME280;61313;48.396;10.008;2024-02-16T03:30:41;96103.28;;;9.22;67.78
8253;BME280;61313;48.396;10.008;2024-02-16T03:33:06;96106.94;;;9.18;67.61
8253;BME280;61313;48.396;10.008;2024-02-16T03:35:32;96100.31;;;9.09;68.04
8253;BME280;61313;48.396;10.008;2024-02-16T03:37:57;96115.44;;;9.02;68.64
8253;BME280;61313;48.396;10.008;2024-02-16T03:40:24;96112.94;;;8.99;68.43
8253;BME280;61313;48.396;10.008;2024-02-16T03:42:50;96114.47;;;9.05;68.92
8253;BME280;61313;48.396;10.008;2024-02-16T03:45:16;96114.06;;;8.94;68.92
8253;BME280;61313;48.396;10.008;2024-02-16T03:47:41;96120.59;;;8.83;69.65
8253;BME280;61313;48.396;10.008;2024-02-16T03:50:07;96115.44;;;9.02;68.78
8253;BME280;61313;48.396;10.008;2024-02-16T03:52:32;96124.34;;;8.98;68.50
8253;BME280;61313;48.396;10.008;2024-02-16T03:54:58;96112.34;;;8.72;69.52
8253;BME280;61313;48.396;10.008;2024-02-16T03:57:24;96119.22;;;8.75;69.93
8253;BME280;61313;48.396;10.008;2024-02-16T03:59:50;96135.84;;;8.94;69.34
8253;BME280;61313;48.396;10.008;2024-02-16T04:02:15;96127.31;;;8.90;69.20
8253;BME280;61313;48.396;10.008;2024-02-16T04:04:41;96123.38;;;9.01;68.59
8253;BME280;61313;48.396;10.008;2024-02-16T04:07:06;96128.66;;;8.99;68.79
8253;BME280;61313;48.396;10.008;2024-02-16T04:09:32;96122.53;;;9.00;68.76
8253;BME280;61313;48.396;10.008;2024-02-16T04:11:58;96123.09;;;9.07;68.48
8253;BME280;61313;48.396;10.008;2024-02-16T04:14:23;96114.53;;;9.03;68.89
8253;BME280;61313;48.396;10.008;2024-02-16T04:16:49;96117.66;;;9.11;68.58
8253;BME280;61313;48.396;10.008;2024-02-16T04:19:14;96113.94;;;8.97;69.20
8253;BME280;61313;48.396;10.008;2024-02-16T04:21:40;96122.78;;;8.94;69.22
8253;BME280;61313;48.396;10.008;2024-02-16T04:24:05;96120.00;;;8.97;69.30
8253;BME280;61313;48.396;10.008;2024-02-16T04:26:31;96122.91;;;8.91;68.76
8253;BME280;61313;48.396;10.008;2024-02-16T04:28:56;96123.50;;;8.98;68.56
8253;BME280;61313;48.396;10.008;2024-02-16T04:31:21;96125.91;;;8.82;68.70
8253;BME280;61313;48.396;10.008;2024-02-16T04:33:47;96123.63;;;8.95;69.21
8253;BME280;61313;48.396;10.008;2024-02-16T04:36:12;96125.25;;;8.97;68.97
8253;BME280;61313;48.396;10.008;2024-02-16T04:38:38;96126.19;;;8.96;68.49
8253;BME280;61313;48.396;10.008;2024-02-16T04:41:06;96130.44;;;8.99;68.92
8253;BME280;61313;48.396;10.008;2024-02-16T04:43:32;96133.00;;;9.00;68.52
8253;BME280;61313;48.396;10.008;2024-02-16T04:45:57;96133.25;;;8.94;68.37
8253;BME280;61313;48.396;10.008;2024-02-16T04:48:23;96129.97;;;8.89;68.71
8253;BME280;61313;48.396;10.008;2024-02-16T04:50:48;96123.31;;;8.60;69.18
8253;BME280;61313;48.396;10.008;2024-02-16T04:53:14;96127.59;;;8.62;69.71
8253;BME280;61313;48.396;10.008;2024-02-16T04:55:39;96120.31;;;8.69;69.49
8253;BME280;61313;48.396;10.008;2024-02-16T04:58:04;96139.69;;;8.65;69.96
8253;BME280;61313;48.396;10.008;2024-02-16T05:00:34;96125.13;;;8.80;68.93
8253;BME280;61313;48.396;10.008;2024-02-16T05:03:00;96126.81;;;8.81;69.17
8253;BME280;61313;48.396;10.008;2024-02-16T05:05:25;96136.28;;;8.83;68.54
8253;BME280;61313;48.396;10.008;2024-02-16T05:07:50;96130.22;;;8.83;69.14
8253;BME280;61313;48.396;10.008;2024-02-16T05:10:16;96129.56;;;8.78;68.96
8253;BME280;61313;48.396;10.008;2024-02-16T05:12:42;96134.50;;;8.63;69.43
8253;BME280;61313;48.396;10.008;2024-02-16T05:15:08;96141.50;;;8.63;69.88
8253;BME280;61313;48.396;10.008;2024-02-16T05:17:34;96149.38;;;8.39;69.91
8253;BME280;61313;48.396;10.008;2024-02-16T05:20:00;96139.13;;;8.57;69.48
8253;BME280;61313;48.396;10.008;2024-02-16T05:22:25;96135.78;;;8.53;70.43
8253;BME280;61313;48.396;10.008;2024-02-16T05:24:50;96139.66;;;8.43;70.56
8253;BME280;61313;48.396;10.008;2024-02-16T05:27:16;96138.28;;;8.56;69.22
8253;BME280;61313;48.396;10.008;2024-02-16T05:29:41;96127.59;;;8.62;69.34
8253;BME280;61313;48.396;10.008;2024-02-16T05:32:07;96136.94;;;8.46;70.22
8253;BME280;61313;48.396;10.008;2024-02-16T05:34:32;96131.59;;;8.49;69.60
8253;BME280;61313;48.396;10.008;2024-02-16T05:37:06;96139.03;;;8.60;69.19
8253;BME280;61313;48.396;10.008;2024-02-16T05:39:33;96132.69;;;8.65;68.93
8253;BME280;61313;48.396;10.008;2024-02-16T05:42:01;96139.59;;;8.66;69.40
8253;BME280;61313;48.396;10.008;2024-02-16T05:44:27;96141.63;;;8.60;69.52
8253;BME280;61313;48.396;10.008;2024-02-16T05:46:52;96139.91;;;8.59;69.50
8253;BME280;61313;48.396;10.008;2024-02-16T05:49:17;96140.88;;;8.56;69.51
8253;BME280;61313;48.396;10.008;2024-02-16T05:51:43;96140.38;;;8.48;69.40
8253;BME280;61313;48.396;10.008;2024-02-16T05:54:27;96143.66;;;8.30;70.63
8253;BME280;61313;48.396;10.008;2024-02-16T05:56:52;96146.03;;;8.36;70.14
8253;BME280;61313;48.396;10.008;2024-02-16T05:59:18;96144.97;;;8.63;69.45
8253;BME280;61313;48.396;10.008;2024-02-16T06:01:43;96149.06;;;8.48;69.58
8253;BME280;61313;48.396;10.008;2024-02-16T06:04:08;96150.56;;;8.54;70.20
8253;BME280;61313;48.396;10.008;2024-02-16T06:06:35;96153.56;;;8.67;69.94
8253;BME280;61313;48.396;10.008;2024-02-16T06:09:01;96152.28;;;8.55;69.46
8253;BME280;61313;48.396;10.008;2024-02-16T06:11:26;96151.94;;;8.41;69.92
8253;BME280;61313;48.396;10.008;2024-02-16T06:13:52;96159.03;;;8.61;70.03
8253;BME280;61313;48.396;10.008;2024-02-16T06:16:17;96152.19;;;8.57;70.47
8253;BME280;61313;48.396;10.008;2024-02-16T06:18:42;96159.72;;;8.64;69.66
8253;BME280;61313;48.396;10.008;2024-02-16T06:21:08;96155.94;;;8.72;69.36
8253;BME280;61313;48.396;10.008;2024-02-16T06:23:33;96164.91;;;8.66;70.06
8253;BME280;61313;48.396;10.008;2024-02-16T06:25:59;96170.00;;;8.69;69.83
8253;BME280;61313;48.396;10.008;2024-02-16T06:28:24;96168.28;;;8.69;69.81
8253;BME280;61313;48.396;10.008;2024-02-16T06:30:49;96173.50;;;8.69;69.30
8253;BME280;61313;48.396;10.008;2024-02-16T06:33:15;96173.91;;;8.81;68.99
8253;BME280;61313;48.396;10.008;2024-02-16T06:35:40;96175.84;;;8.76;69.44
8253;BME280;61313;48.396;10.008;2024-02-16T06:38:06;96180.44;;;8.71;69.27
8253;BME280;61313;48.396;10.008;2024-02-16T06:40:31;96178.59;;;8.73;68.93
8253;BME280;61313;48.396;10.008;2024-02-16T06:42:57;96195.63;;;8.83;69.53
8253;BME280;61313;48.396;10.008;2024-02-16T06:45:22;96195.25;;;8.92;68.28
8253;BME280;61313;48.396;10.008;2024-02-16T06:47:49;96200.50;;;8.92;69.11
8253;BME280;61313;48.396;10.008;2024-02-16T06:50:14;96200.34;;;8.95;68.62
8253;BME280;61313;48.396;10.008;2024-02-16T06:52:40;96202.41;;;8.88;69.25
8253;BME280;61313;48.396;10.008;2024-02-16T06:55:05;96207.97;;;9.01;68.93
8253;BME280;61313;48.396;10.008;2024-02-16T06:57:31;96210.72;;;8.98;69.09
8253;BME280;61313;48.396;10.008;2024-02-16T06:59:56;96220.13;;;9.02;68.65
8253;BME280;61313;48.396;10.008;2024-02-16T07:02:23;96218.97;;;9.52;66.80
8253;BME280;61313;48.396;10.008;2024-02-16T07:04:48;96230.97;;;10.55;63.37
8253;BME280;61313;48.396;10.008;2024-02-16T07:07:13;96228.09;;;10.43;63.15
8253;BME280;61313;48.396;10.008;2024-02-16T07:09:39;96232.44;;;10.04;64.36
8253;BME280;61313;48.396;10.008;2024-02-16T07:12:05;96231.19;;;9.72;65.56
8253;BME280;61313;48.396;10.008;2024-02-16T07:14:32;96233.09;;;9.48;66.65
8253;BME280;61313;48.396;10.008;2024-02-16T07:16:57;96233.16;;;9.46;66.94
8253;BME280;61313;48.396;10.008;2024-02-16T07:19:23;96231.47;;;9.45;66.35
8253;BME280;61313;48.396;10.008;2024-02-16T07:21:48;96237.63;;;9.85;65.68
8253;BME280;61313;48.396;10.008;2024-02-16T07:24:14;96233.34;;;11.34;60.68
8253;BME280;61313;48.396;10.008;2024-02-16T07:26:40;96223.81;;;12.35;58.04
8253;BME280;61313;48.396;10.008;2024-02-16T07:29:07;96224.16;;;12.92;55.21
8253;BME280;61313;48.396;10.008;2024-02-16T07:31:33;96229.69;;;12.56;56.05
8253;BME280;61313;48.396;10.008;2024-02-16T07:34:00;96235.59;;;11.59;58.86
8253;BME280;61313;48.396;10.008;2024-02-16T07:36:26;96237.28;;;10.89;61.24
8253;BME280;61313;48.396;10.008;2024-02-16T07:38:51;96235.81;;;10.65;62.56
8253;BME280;61313;48.396;10.008;2024-02-16T07:41:16;96232.06;;;10.51;63.21
8253;BME280;61313;48.396;10.008;2024-02-16T07:43:42;96243.69;;;10.65;63.29
8253;BME280;61313;48.396;10.008;2024-02-16T07:46:07;96239.47;;;10.98;62.29
8253;BME280;61313;48.396;10.008;2024-02-16T07:48:33;96240.66;;;11.10;61.62
8253;BME280;61313;48.396;10.008;2024-02-16T07:50:59;96242.34;;;11.11;61.82
8253;BME280;61313;48.396;10.008;2024-02-16T07:53:28;96237.50;;;11.21;61.02
8253;BME280;61313;48.396;10.008;2024-02-16T07:55:54;96239.94;;;11.07;61.71
8253;BME280;61313;48.396;10.008;2024-02-16T07:58:19;96247.44;;;11.14;61.75
8253;BME280;61313;48.396;10.008;2024-02-16T08:00:44;96239.47;;;11.87;59.87
8253;BME280;61313;48.396;10.008;2024-02-16T08:03:10;96236.44;;;12.93;56.78
8253;BME280;61313;48.396;10.008;2024-02-16T08:05:35;96230.69;;;13.93;53.38
8253;BME280;61313;48.396;10.008;2024-02-16T08:08:01;96227.91;;;14.25;52.38
8253;BME280;61313;48.396;10.008;2024-02-16T08:10:26;96229.94;;;15.18;49.80
8253;BME280;61313;48.396;10.008;2024-02-16T08:12:52;96232.44;;;14.93;50.11
8253;BME280;61313;48.396;10.008;2024-02-16T08:15:18;96231.88;;;15.29;49.43
8253;BME280;61313;48.396;10.008;2024-02-16T08:17:49;96226.38;;;15.99;47.55
8253;BME280;61313;48.396;10.008;2024-02-16T08:20:16;96217.56;;;16.37;46.51
8253;BME280;61313;48.396;10.008;2024-02-16T08:22:41;96223.50;;;16.15;46.62
8253;BME280;61313;48.396;10.008;2024-02-16T08:25:07;96224.44;;;15.49;48.63
8253;BME280;61313;48.396;10.008;2024-02-16T08:27:32;96229.84;;;15.20;49.16
8253;BME280;61313;48.396;10.008;2024-02-16T08:29:58;96223.41;;;16.17;47.35
8253;BME280;61313;48.396;10.008;2024-02-16T08:32:23;96224.69;;;16.99;45.30
8253;BME280;61313;48.396;10.008;2024-02-16T08:34:49;96216.31;;;17.65;43.42
8253;BME280;61313;48.396;10.008;2024-02-16T08:37:15;96215.97;;;18.16;42.20
8253;BME280;61313;48.396;10.008;2024-02-16T08:39:41;96222.31;;;18.60;41.12
8253;BME280;61313;48.396;10.008;2024-02-16T08:42:07;96220.00;;;18.67;41.48
8253;BME280;61313;48.396;10.008;2024-02-16T08:44:34;96213.00;;;18.88;40.72
8253;BME280;61313;48.396;10.008;2024-02-16T08:47:00;96214.22;;;18.84;40.81
8253;BME280;61313;48.396;10.008;2024-02-16T08:49:25;96218.81;;;18.59;41.11
8253;BME280;61313;48.396;10.008;2024-02-16T08:51:50;96224.00;;;18.72;40.99
8253;BME280;61313;48.396;10.008;2024-02-16T08:54:16;96223.25;;;18.70;41.28
8253;BME280;61313;48.396;10.008;2024-02-16T08:56:44;96222.06;;;18.40;41.24
8253;BME280;61313;48.396;10.008;2024-02-16T08:59:10;96228.00;;;17.97;42.19
8253;BME280;61313;48.396;10.008;2024-02-16T09:01:37;96223.41;;;17.64;42.67
8253;BME280;61313;48.396;10.008;2024-02-16T09:04:02;96224.56;;;17.49;43.52
8253;BME280;61313;48.396;10.008;2024-02-16T09:06:28;96224.28;;;17.89;42.36
8253;BME280;61313;48.396;10.008;2024-02-16T09:08:54;96223.72;;;18.30;41.82
8253;BME280;61313;48.396;10.008;2024-02-16T09:11:20;96219.88;;;18.46;41.29
8253;BME280;61313;48.396;10.008;2024-02-16T09:13:46;96222.66;;;18.22;41.63
8253;BME280;61313;48.396;10.008;2024-02-16T09:16:11;96216.88;;;18.61;41.10
8253;BME280;61313;48.396;10.008;2024-02-16T09:18:37;96219.16;;;18.89;40.72
8253;BME280;61313;48.396;10.008;2024-02-16T09:21:03;96220.63;;;18.81;40.56
8253;BME280;61313;48.396;10.008;2024-02-16T09:23:29;96220.38;;;18.62;40.85
8253;BME280;61313;48.396;10.008;2024-02-16T09:25:55;96216.25;;;19.03;39.67
8253;BME280;61313;48.396;10.008;2024-02-16T09:28:20;96219.38;;;19.52;39.28
8253;BME280;61313;48.396;10.008;2024-02-16T09:30:46;96212.69;;;19.25;39.35
8253;BME280;61313;48.396;10.008;2024-02-16T09:33:12;96214.94;;;19.41;39.16
8253;BME280;61313;48.396;10.008;2024-02-16T09:35:39;96221.72;;;19.34;39.17
8253;BME280;61313;48.396;10.008;2024-02-16T09:38:05;96215.59;;;19.22;39.69
8253;BME280;61313;48.396;10.008;2024-02-16T09:40:30;96212.16;;;19.42;39.56
8253;BME280;61313;48.396;10.008;2024-02-16T09:42:55;96218.34;;;19.32;39.56
8253;BME280;61313;48.396;10.008;2024-02-16T09:45:21;96221.47;;;19.37;39.77
8253;BME280;61313;48.396;10.008;2024-02-16T09:47:50;96223.22;;;19.15;39.95
8253;BME280;61313;48.396;10.008;2024-02-16T09:50:16;96224.25;;;18.58;41.50
8253;BME280;61313;48.396;10.008;2024-02-16T09:52:42;96221.56;;;18.24;42.24
8253;BME280;61313;48.396;10.008;2024-02-16T09:55:12;96230.25;;;17.80;43.26
8253;BME280;61313;48.396;10.008;2024-02-16T09:57:38;96227.63;;;17.55;43.79
8253;BME280;61313;48.396;10.008;2024-02-16T10:00:04;96230.97;;;17.22;44.88
8253;BME280;61313;48.396;10.008;2024-02-16T10:02:43;96233.03;;;17.06;45.54
8253;BME280;61313;48.396;10.008;2024-02-16T10:05:19;96231.13;;;17.08;45.49
8253;BME280;61313;48.396;10.008;2024-02-16T10:07:45;96240.63;;;16.73;46.30
8253;BME280;61313;48.396;10.008;2024-02-16T10:10:27;96236.94;;;16.50;46.64
8253;BME280;61313;48.396;10.008;2024-02-16T10:13:05;96241.09;;;16.42;47.01
8253;BME280;61313;48.396;10.008;2024-02-16T10:15:32;96231.31;;;16.29;47.36
8253;BME280;61313;48.396;10.008;2024-02-16T10:18:01;96238.66;;;16.26;47.72
8253;BME280;61313;48.396;10.008;2024-02-16T10:20:28;96238.34;;;16.30;47.40
8253;BME280;61313;48.396;10.008;2024-02-16T10:23:08;96237.47;;;16.17;47.99
8253;BME280;61313;48.396;10.008;2024-02-16T10:25:35;96229.44;;;16.19;47.42
8253;BME280;61313;48.396;10.008;2024-02-16T10:28:20;96234.19;;;16.26;47.11
8253;BME280;61313;48.396;10.008;2024-02-16T10:30:58;96238.66;;;16.26;46.88
8253;BME280;61313;48.396;10.008;2024-02-16T10:33:27;96238.41;;;16.55;46.69
8253;BME280;61313;48.396;10.008;2024-02-16T10:35:55;96234.59;;;16.84;46.13
8253;BME280;61313;48.396;10.008;2024-02-16T10:38:22;96239.09;;;16.95;45.42
8253;BME280;61313;48.396;10.008;2024-02-16T10:40:50;96242.41;;;16.99;45.38
8253;BME280;61313;48.396;10.008;2024-02-16T10:43:17;96234.91;;;16.80;45.63
8253;BME280;61313;48.396;10.008;2024-02-16T10:45:43;96245.28;;;16.83;45.74
8253;BME280;61313;48.396;10.008;2024-02-16T10:48:10;96232.34;;;16.78;46.19
8253;BME280;61313;48.396;10.008;2024-02-16T10:50:36;96230.41;;;17.30;44.96
8253;BME280;61313;48.396;10.008;2024-02-16T10:55:35;96237.72;;;17.26;44.95
8253;BME280;61313;48.396;10.008;2024-02-16T10:58:01;96245.06;;;17.23;45.55
8253;BME280;61313;48.396;10.008;2024-02-16T11:00:26;96244.72;;;17.27;45.34
8253;BME280;61313;48.396;10.008;2024-02-16T11:02:59;96244.75;;;17.14;46.11
8253;BME280;61313;48.396;10.008;2024-02-16T11:05:35;96245.16;;;17.21;45.86
8253;BME280;61313;48.396;10.008;2024-02-16T11:08:02;96240.72;;;17.22;46.13
8253;BME280;61313;48.396;10.008;2024-02-16T11:10:28;96235.88;;;17.40;46.09
8253;BME280;61313;48.396;10.008;2024-02-16T11:12:54;96235.69;;;17.54;45.94
8253;BME280;61313;48.396;10.008;2024-02-16T11:15:32;96229.13;;;17.71;45.58
8253;BME280;61313;48.396;10.008;2024-02-16T11:18:00;96231.19;;;18.14;44.94
8253;BME280;61313;48.396;10.008;2024-02-16T11:20:26;96229.16;;;18.40;43.89
8253;BME280;61313;48.396;10.008;2024-02-16T11:22:52;96223.41;;;18.57;43.50
8253;BME280;61313;48.396;10.008;2024-02-16T11:25:19;96235.22;;;18.65;43.16
8253;BME280;61313;48.396;10.008;2024-02-16T11:27:46;96236.31;;;18.73;43.16
8253;BME280;61313;48.396;10.008;2024-02-16T11:30:12;96229.81;;;18.55;42.85
8253;BME280;61313;48.396;10.008;2024-02-16T11:32:38;96228.94;;;18.66;42.51
8253;BME280;61313;48.396;10.008;2024-02-16T11:35:06;96224.59;;;18.42;43.02
8253;BME280;61313;48.396;10.008;2024-02-16T11:37:33;96224.94;;;18.37;42.69
8253;BME280;61313;48.396;10.008;2024-02-16T11:39:58;96226.97;;;18.23;42.98
8253;BME280;61313;48.396;10.008;2024-02-16T11:42:24;96234.41;;;17.95;43.39
8253;BME280;61313;48.396;10.008;2024-02-16T11:44:51;96222.22;;;17.81;43.96
8253;BME280;61313;48.396;10.008;2024-02-16T11:47:21;96229.34;;;17.92;43.97
8253;BME280;61313;48.396;10.008;2024-02-16T11:50:22;96227.03;;;17.87;44.38
8253;BME280;61313;48.396;10.008;2024-02-16T11:52:47;96220.28;;;17.94;43.70
8253;BME280;61313;48.396;10.008;2024-02-16T11:55:13;96222.56;;;17.88;43.91
8253;BME280;61313;48.396;10.008;2024-02-16T11:57:40;96223.22;;;18.14;43.51
8253;BME280;61313;48.396;10.008;2024-02-16T12:00:06;96223.31;;;18.01;43.95
8253;BME280;61313;48.396;10.008;2024-02-16T12:02:37;96223.31;;;18.01;43.91
8253;BME280;61313;48.396;10.008;2024-02-16T12:05:03;96222.00;;;18.07;43.92
8253;BME280;61313;48.396;10.008;2024-02-16T12:07:28;96215.91;;;17.82;44.39
8253;BME280;61313;48.396;10.008;2024-02-16T12:09:56;96223.31;;;17.66;44.56
8253;BME280;61313;48.396;10.008;2024-02-16T12:12:22;96215.91;;;17.82;44.96
8253;BME280;61313;48.396;10.008;2024-02-16T12:14:47;96226.00;;;17.77;45.08
8253;BME280;61313;48.396;10.008;2024-02-16T12:17:14;96216.91;;;17.81;45.50
8253;BME280;61313;48.396;10.008;2024-02-16T12:19:44;96219.09;;;17.98;44.91
8253;BME280;61313;48.396;10.008;2024-02-16T12:22:10;96219.56;;;17.81;45.64
8253;BME280;61313;48.396;10.008;2024-02-16T12:24:35;96219.56;;;17.68;45.55
8253;BME280;61313;48.396;10.008;2024-02-16T12:27:01;96221.94;;;17.49;45.97
8253;BME280;61313;48.396;10.008;2024-02-16T12:29:26;96227.75;;;17.30;45.79
8253;BME280;61313;48.396;10.008;2024-02-16T12:31:51;96219.66;;;17.07;46.65
8253;BME280;61313;48.396;10.008;2024-02-16T12:34:17;96231.00;;;17.09;46.27
8253;BME280;61313;48.396;10.008;2024-02-16T12:36:42;96222.78;;;16.88;47.53
8253;BME280;61313;48.396;10.008;2024-02-16T12:39:08;96220.28;;;16.87;47.44
8253;BME280;61313;48.396;10.008;2024-02-16T12:41:38;96224.69;;;16.99;47.25
8253;BME280;61313;48.396;10.008;2024-02-16T12:44:04;96223.19;;;16.95;47.92
8253;BME280;61313;48.396;10.008;2024-02-16T12:46:31;96222.69;;;16.90;48.31
8253;BME280;61313;48.396;10.008;2024-02-16T12:48:56;96229.06;;;16.87;48.12
8253;BME280;61313;48.396;10.008;2024-02-16T12:51:22;96221.34;;;16.84;48.59
8253;BME280;61313;48.396;10.008;2024-02-16T12:53:48;96222.78;;;16.88;48.54
8253;BME280;61313;48.396;10.008;2024-02-16T12:56:14;96227.03;;;16.91;48.66
8253;BME280;61313;48.396;10.008;2024-02-16T12:58:39;96233.19;;;16.91;48.71
8253;BME280;61313;48.396;10.008;2024-02-16T13:01:05;96232.28;;;16.80;48.78
8253;BME280;61313;48.396;10.008;2024-02-16T13:03:36;96229.38;;;16.83;49.14